Time;durP1;ratioP1;P1;durP2;ratioP2;P2;SDS_P1;SDS_P2;PMS_P1;PMS_P2;Temp;Humidity;BMP_temperature;BMP_pressure;BME280_temperature;BME280_humidity;BME280_pressure;Samples;Min_cycle;Max_cycle;Signal;HPM_P1;HPM_P2
2022/08/15 00:01:47;;;;;;;7.18;6.47;;;;;;;;;;10356878;28;20221;-76
2022/08/15 00:07:09;;;;;;;6.45;5.85;;;;;;;;;;10302589;28;20481;-77
2022/08/15 00:12:32;;;;;;;6.68;5.90;;;;;;;;;;10301836;28;20249;-77
2022/08/15 00:17:54;;;;;;;8.88;6.68;;;;;;;;;;10315112;28;20207;-77
2022/08/15 00:23:19;;;;;;;7.78;6.95;;;22.60;1.00;;;;;;10314671;28;20237;-77
2022/08/15 00:28:41;;;;;;;7.75;6.80;;;21.70;1.00;;;;;;10285105;28;20240;-77
2022/08/15 00:34:03;;;;;;;8.55;7.22;;;21.70;1.00;;;;;;10315733;28;20202;-76
2022/08/15 00:39:26;;;;;;;10.27;8.30;;;;;;;;;;10300500;28;20242;-76
2022/08/15 00:44:49;;;;;;;8.55;7.63;;;21.40;5.80;;;;;;10314421;28;20198;-77
2022/08/15 00:50:12;;;;;;;10.98;7.63;;;;;;;;;;10314261;28;20205;-77
2022/08/15 00:55:37;;;;;;;9.85;7.72;;;;;;;;;;10349438;28;20205;-77
2022/08/15 01:00:59;;;;;;;9.55;7.15;;;;;;;;;;10340723;28;20217;-77
2022/08/15 01:06:22;;;;;;;8.02;7.00;;;;;;;;;;10314130;28;20197;-77
2022/08/15 01:11:58;;;;;;;7.78;6.97;;;;;;;;;;10319354;28;20194;-77
2022/08/15 01:17:21;;;;;;;7.35;6.40;;;;;;;;;;10294909;28;20202;-77
2022/08/15 01:22:42;;;;;;;8.25;7.05;;;;;;;;;;10307244;28;20313;-76
2022/08/15 01:28:04;;;;;;;8.77;6.68;;;;;;;;;;10322324;28;20587;-77
2022/08/15 01:33:27;;;;;;;9.05;6.63;;;;;;;;;;10384009;28;20197;-76
2022/08/15 01:38:57;;;;;;;9.07;6.43;;;;;;;;;;10357963;28;20221;-77
2022/08/15 01:44:21;;;;;;;7.55;5.78;;;;;;;;;;10371495;28;20232;-76
2022/08/15 01:49:49;;;;;;;7.78;6.18;;;;;;;;;;10358058;28;20495;-77
2022/08/15 01:55:13;;;;;;;6.43;5.43;;;;;;;;;;10358705;28;20206;-76
2022/08/15 02:00:37;;;;;;;7.00;6.30;;;21.50;1.00;;;;;;10330542;28;20247;-76
2022/08/15 02:06:09;;;;;;;6.65;5.95;;;21.40;1.00;;;;;;10330763;28;20481;-77
2022/08/15 02:11:32;;;;;;;7.07;6.22;;;21.40;1.00;;;;;;10320134;28;20203;-76
2022/08/15 02:16:53;;;;;;;7.32;6.63;;;21.30;28.70;;;;;;10319842;28;20191;-76
2022/08/15 02:22:17;;;;;;;7.60;6.80;;;;;;;;;;10319277;28;20229;-76
2022/08/15 02:27:39;;;;;;;8.93;7.13;;;21.40;1.00;;;;;;10320056;28;20221;-77
2022/08/15 02:33:04;;;;;;;13.43;7.22;;;21.40;3.00;;;;;;10378456;28;20264;-77
2022/08/15 02:38:27;;;;;;;11.02;7.40;;;;;;;;;;10369381;28;20247;-77
2022/08/15 02:43:49;;;;;;;9.43;7.32;;;;;;;;;;10369336;28;20503;-77
2022/08/15 02:49:11;;;;;;;10.95;8.25;;;;;;;;;;10385399;28;20196;-76
2022/08/15 02:54:35;;;;;;;9.45;8.00;;;;;;;;;;10346587;28;20385;-78
2022/08/15 03:00:03;;;;;;;10.75;7.55;;;;;;;;;;10344820;28;20221;-77
2022/08/15 03:05:29;;;;;;;9.80;7.57;;;;;;;;;;10318286;28;20210;-78
2022/08/15 03:10:53;;;;;;;9.02;7.43;;;;;;;;;;10317841;28;20383;-77
2022/08/15 03:16:17;;;;;;;16.33;8.25;;;21.30;27.40;;;;;;10317808;28;20241;-77
2022/08/15 03:21:38;;;;;;;8.65;7.55;;;21.20;35.80;;;;;;10289720;28;20442;-76
2022/08/15 03:27:00;;;;;;;8.65;7.70;;;21.30;32.60;;;;;;10303461;28;20206;-78
2022/08/15 03:32:23;;;;;;;13.00;7.78;;;21.30;30.20;;;;;;10370721;28;20202;-77
2022/08/15 03:37:44;;;;;;;9.73;7.75;;;21.30;36.50;;;;;;10383858;28;20217;-77
2022/08/15 03:43:14;;;;;;;8.98;7.72;;;21.20;37.60;;;;;;10383411;28;20543;-76
2022/08/15 03:48:44;;;;;;;10.35;8.07;;;21.20;37.00;;;;;;10383049;28;20260;-76
2022/08/15 03:54:07;;;;;;;9.45;8.23;;;21.20;47.30;;;;;;10345128;28;20201;-77
2022/08/15 03:59:29;;;;;;;10.02;8.05;;;21.30;48.90;;;;;;10329065;28;20218;-78
2022/08/15 04:04:51;;;;;;;9.32;7.53;;;21.30;45.50;;;;;;10291087;28;20493;-77
2022/08/15 04:10:15;;;;;;;12.60;8.45;;;21.30;48.20;;;;;;10315526;28;20452;-78
2022/08/15 04:15:42;;;;;;;9.93;8.25;;;21.30;42.60;;;;;;10315232;28;20207;-78
2022/08/15 04:21:08;;;;;;;12.32;8.73;;;21.30;24.40;;;;;;10314876;28;20228;-77
2022/08/15 04:26:30;;;;;;;10.38;8.60;;;21.40;30.40;;;;;;10315060;28;20199;-77
2022/08/15 04:31:56;;;;;;;10.15;8.02;;;21.40;32.90;;;;;;10348015;28;20564;-77
2022/08/15 04:37:19;;;;;;;10.05;9.05;;;21.50;19.90;;;;;;10381845;28;20193;-77
2022/08/15 04:42:49;;;;;;;10.55;9.00;;;21.60;27.60;;;;;;10381947;28;20252;-77
2022/08/15 04:48:16;;;;;;;11.15;9.73;;;21.70;19.80;;;;;;10380569;28;20274;-77
2022/08/15 04:53:39;;;;;;;9.77;7.90;;;21.70;20.70;;;;;;10350351;28;20201;-78
2022/08/15 04:59:02;;;;;;;9.70;8.43;;;21.80;14.10;;;;;;10324214;28;20522;-77
2022/08/15 05:04:24;;;;;;;24.63;12.52;;;21.90;24.30;;;;;;10337710;28;20205;-77
2022/08/15 05:09:49;;;;;;;31.27;15.07;;;22.00;11.10;;;;;;10299435;28;20400;-77
2022/08/15 05:15:13;;;;;;;27.02;14.18;;;22.00;1.00;;;;;;10313705;28;20539;-76
2022/08/15 05:20:36;;;;;;;21.27;12.05;;;22.10;12.00;;;;;;10313651;28;20607;-76
2022/08/15 05:26:00;;;;;;;12.35;10.18;;;22.20;1.00;;;;;;10313929;28;20222;-79
2022/08/15 05:31:23;;;;;;;11.50;8.65;;;22.30;1.00;;;;;;10342388;28;20237;-77
2022/08/15 05:36:51;;;;;;;15.10;9.88;;;22.40;1.00;;;;;;10364157;28;20438;-77
2022/08/15 05:42:16;;;;;;;13.90;9.15;;;22.50;1.00;;;;;;10366976;28;20430;-75
2022/08/15 05:48:03;;;;;;;15.48;11.02;;;22.60;1.00;;;;;;10380510;28;20217;-75
2022/08/15 05:53:29;;;;;;;16.63;11.25;;;22.60;1.00;;;;;;10350892;28;20202;-78
2022/08/15 05:58:56;;;;;;;14.23;10.70;;;;;;;;;;10358617;28;20272;-78
2022/08/15 06:04:22;;;;;;;12.25;10.82;;;;;;;;;;10330160;28;20194;-76
2022/08/15 06:09:51;;;;;;;14.00;9.98;;;;;;;;;;10306086;28;20277;-77
2022/08/15 06:15:23;;;;;;;12.13;10.27;;;;;;;;;;10319743;28;20225;-76
2022/08/15 06:21:00;;;;;;;14.90;8.85;;;;;;;;;;10319572;28;20249;-78
2022/08/15 06:26:54;;;;;;;16.33;11.05;;;23.50;1.00;;;;;;10319304;28;20426;-78
2022/08/15 06:32:48;;;;;;;12.82;10.02;;;23.90;1.00;;;;;;10386044;28;20294;-78
2022/08/15 06:38:26;;;;;;;11.63;10.25;;;25.20;1.00;;;;;;10380127;28;20492;-75
2022/08/15 06:43:49;;;;;;;11.02;9.57;;;25.30;1.00;;;;;;10369145;28;20231;-75
2022/08/15 06:49:36;;;;;;;13.95;9.73;;;26.40;99.90;;;;;;10385788;28;20227;-78
2022/08/15 06:54:59;;;;;;;16.33;10.18;;;27.40;1.00;;;;;;10343271;28;20202;-79
2022/08/15 07:00:46;;;;;;;10.73;8.60;;;27.90;99.90;;;;;;10344850;28;20287;-76
2022/08/15 07:06:16;;;;;;;13.93;8.98;;;28.80;1.00;;;;;;10304099;28;20209;-78
2022/08/15 07:11:49;;;;;;;14.15;9.95;;;29.20;1.00;;;;;;10317263;28;20194;-77
2022/08/15 07:17:25;;;;;;;13.45;9.45;;;29.40;1.00;;;;;;10290481;28;20273;-82
2022/08/15 07:22:48;;;;;;;10.70;9.35;;;29.90;99.90;;;;;;10317205;28;20524;-81
2022/08/15 07:28:17;;;;;;;11.05;9.57;;;30.10;1.00;;;;;;10316760;28;20250;-80
2022/08/15 07:33:47;;;;;;;12.40;9.80;;;30.40;1.00;;;;;;10379524;28;20272;-79
2022/08/15 07:39:42;;;;;;;10.45;8.80;;;30.90;57.00;;;;;;10366974;28;20228;-78
2022/08/15 07:45:40;;;;;;;15.95;9.45;;;31.20;1.00;;;;;;10379960;28;20209;-80
2022/08/15 07:51:22;;;;;;;9.60;8.60;;;31.60;1.00;;;;;;10366699;28;20552;-78
2022/08/15 07:57:00;;;;;;;12.52;9.13;;;32.00;99.90;;;;;;10342421;28;20441;-79
2022/08/15 08:02:46;;;;;;;9.57;8.65;;;32.30;1.00;;;;;;10355553;28;20225;-79
2022/08/15 08:08:11;;;;;;;13.10;9.80;;;32.70;1.00;;;;;;10301873;28;20355;-79
2022/08/15 08:13:43;;;;;;;11.23;8.65;;;33.00;1.00;;;;;;10285858;28;20221;-78
2022/08/15 08:19:47;;;;;;;9.55;8.60;;;33.10;99.90;;;;;;10301387;28;20194;-81
2022/08/15 08:25:49;;;;;;;10.20;9.20;;;33.00;99.90;;;;;;10153982;29;20578;-78
2022/08/15 08:31:36;;;;;;;8.88;7.93;;;32.90;99.90;;;;;;10158081;29;20247;-77
2022/08/15 08:37:14;;;;;;;11.10;7.88;;;32.90;99.90;;;;;;10192950;29;20209;-77
2022/08/15 08:43:13;;;;;;;11.32;8.85;;;32.90;99.90;;;;;;10192934;29;20256;-76
2022/08/15 08:48:53;;;;;;;13.98;9.02;;;33.30;99.90;;;;;;10176466;29;20284;-78
2022/08/15 08:54:28;;;;;;;12.27;8.77;;;33.30;99.90;;;;;;10181143;29;20275;-78
2022/08/15 09:00:19;;;;;;;14.15;8.18;;;33.90;1.00;;;;;;10254123;28;20293;-78
2022/08/15 09:05:51;;;;;;;13.23;8.98;;;34.20;1.00;;;;;;10328010;28;20492;-78
2022/08/15 09:11:30;;;;;;;15.65;8.85;;;34.00;1.00;;;;;;10355034;28;20197;-81
2022/08/15 09:16:55;;;;;;;9.45;7.80;;;34.10;1.00;;;;;;10354928;28;20248;-78
2022/08/15 09:22:23;;;;;;;11.27;8.10;;;34.00;1.00;;;;;;10354698;28;20249;-77
2022/08/15 09:27:50;;;;;;;10.90;8.02;;;34.30;1.00;;;;;;10324061;28;20288;-78
2022/08/15 09:33:24;;;;;;;8.75;7.65;;;34.90;1.00;;;;;;10393018;28;20197;-80
2022/08/15 09:39:18;;;;;;;12.57;8.27;;;34.60;1.00;;;;;;10403036;28;20206;-77
2022/08/15 09:45:06;;;;;;;10.05;7.70;;;35.00;1.00;;;;;;10403052;28;20268;-79
2022/08/15 09:50:59;;;;;;;13.30;8.15;;;35.30;1.00;;;;;;10402529;28;20211;-78
2022/08/15 09:56:23;;;;;;;8.98;8.07;;;35.10;1.00;;;;;;10361664;28;20198;-78
2022/08/15 10:01:58;;;;;;;11.70;9.30;;;35.10;1.00;;;;;;10361728;28;20272;-77
2022/08/15 10:07:31;;;;;;;11.48;8.63;;;35.20;1.00;;;;;;10321006;28;20266;-79
2022/08/15 10:13:24;;;;;;;13.48;8.10;;;34.80;1.00;;;;;;10303525;28;20206;-79
2022/08/15 10:18:45;;;;;;;14.35;8.15;;;34.90;1.00;;;;;;10320382;28;20220;-77
2022/08/15 10:24:23;;;;;;;13.13;9.07;;;34.80;1.00;;;;;;10306142;28;20218;-78
2022/08/15 10:29:48;;;;;;;10.95;8.52;;;34.90;1.00;;;;;;10336148;28;20237;-80
2022/08/15 10:35:16;;;;;;;11.77;8.70;;;34.80;1.00;;;;;;10386053;28;20372;-79
2022/08/15 10:40:49;;;;;;;15.80;9.13;;;35.40;1.00;;;;;;10400806;28;20251;-81
2022/08/15 10:46:17;;;;;;;13.15;9.02;;;35.60;1.00;;;;;;10381975;28;20429;-80
2022/08/15 10:51:58;;;;;;;10.30;9.15;;;35.20;1.00;;;;;;10378856;28;20202;-80
2022/08/15 10:57:22;;;;;;;11.30;8.68;;;33.60;1.00;;;;;;10342306;28;20273;-78
2022/08/15 11:02:47;;;;;;;11.10;8.90;;;33.80;1.00;;;;;;10340295;28;20226;-78
2022/08/15 11:08:14;;;;;;;15.48;7.90;;;34.10;1.00;;;;;;10318849;28;20199;-82
2022/08/15 11:13:37;;;;;;;12.90;8.07;;;34.20;1.00;;;;;;10317926;28;20241;-80
2022/08/15 11:19:01;;;;;;;15.70;8.75;;;34.40;1.00;;;;;;10318513;28;20197;-78
2022/08/15 11:24:30;;;;;;;10.85;8.82;;;35.10;1.00;;;;;;10333287;28;20234;-79
2022/08/15 11:29:55;;;;;;;12.43;8.48;;;35.40;1.00;;;;;;10335621;28;20554;-79
2022/08/15 11:35:28;;;;;;;17.70;9.45;;;35.60;1.00;;;;;;10381097;28;20201;-81
2022/08/15 11:40:52;;;;;;;12.98;8.63;;;35.20;99.90;;;;;;10353566;28;20229;-82
2022/08/15 11:46:17;;;;;;;14.43;8.63;;;34.80;99.90;;;;;;10398152;28;20215;-81
2022/08/15 11:51:43;;;;;;;14.45;9.20;;;34.50;99.90;;;;;;10391266;28;20552;-81
2022/08/15 11:57:06;;;;;;;11.13;8.73;;;34.00;99.90;;;;;;10337366;28;20202;-81
2022/08/15 12:02:30;;;;;;;11.25;8.93;;;33.80;1.00;;;;;;10353617;28;20222;-79
2022/08/15 12:07:57;;;;;;;16.42;8.40;;;34.40;1.00;;;;;;10286210;28;20206;-80
2022/08/15 12:13:24;;;;;;;8.85;7.75;;;34.90;99.90;;;;;;10316397;28;20199;-80
2022/08/15 12:18:46;;;;;;;9.25;8.35;;;34.50;99.90;;;;;;10316181;28;20198;-81
2022/08/15 12:24:20;;;;;;;13.20;9.38;;;33.90;99.90;;;;;;10315246;28;20226;-80
2022/08/15 12:29:42;;;;;;;12.73;9.30;;;33.70;99.90;;;;;;10326561;28;20235;-81
2022/08/15 12:35:05;;;;;;;11.00;8.65;;;33.80;99.90;;;;;;10396391;28;20185;-80
2022/08/15 12:40:27;;;;;;;10.05;8.45;;;33.90;99.90;;;;;;10381521;28;20268;-80
2022/08/15 12:45:49;;;;;;;12.68;8.65;;;33.80;99.90;;;;;;10395777;28;20403;-77
2022/08/15 12:51:11;;;;;;;11.02;9.13;;;33.40;99.90;;;;;;10396100;28;20204;-77
2022/08/15 12:56:33;;;;;;;14.02;9.57;;;32.40;99.90;;;;;;10355069;28;20476;-80
2022/08/15 13:01:55;;;;;;;10.35;9.15;;;31.30;99.90;;;;;;10355046;28;20230;-80
2022/08/15 13:07:18;;;;;;;13.48;8.80;;;30.90;1.00;;;;;;10304393;28;20198;-80
2022/08/15 13:12:40;;;;;;;12.50;9.27;;;30.70;1.00;;;;;;10322078;28;20205;-79
2022/08/15 13:18:01;;;;;;;11.80;8.45;;;30.60;1.00;;;;;;10295061;28;20249;-78
2022/08/15 13:23:43;;;;;;;12.90;8.75;;;30.50;1.00;;;;;;10322659;28;20226;-79
2022/08/15 13:29:04;;;;;;;9.95;7.78;;;30.20;1.00;;;;;;10327086;28;20229;-80
2022/08/15 13:34:30;;;;;;;12.95;7.85;;;30.10;1.00;;;;;;10403525;28;20196;-79
2022/08/15 13:39:53;;;;;;;10.45;7.57;;;30.20;1.00;;;;;;10403036;28;20197;-81
2022/08/15 13:45:17;;;;;;;12.38;8.13;;;30.30;1.00;;;;;;10402702;28;20212;-77
2022/08/15 13:50:41;;;;;;;8.93;7.57;;;30.80;1.00;;;;;;10385021;28;20507;-77
2022/08/15 13:56:04;;;;;;;10.48;7.93;;;31.30;1.00;;;;;;10337261;28;20256;-80
2022/08/15 14:01:25;;;;;;;11.82;7.30;;;31.20;1.00;;;;;;10346928;28;20221;-78
2022/08/15 14:06:47;;;;;;;10.38;7.65;;;31.00;1.00;;;;;;10324671;28;20197;-77
2022/08/15 14:12:08;;;;;;;8.60;7.13;;;30.70;1.00;;;;;;10320934;28;20218;-80
2022/08/15 14:17:31;;;;;;;12.52;8.07;;;30.40;1.00;;;;;;10320522;28;20266;-80
2022/08/15 14:22:52;;;;;;;10.10;7.43;;;30.20;1.00;;;;;;10335605;28;20237;-80
2022/08/15 14:28:14;;;;;;;10.65;7.20;;;30.10;1.00;;;;;;10319839;28;20422;-81
2022/08/15 14:33:36;;;;;;;10.50;7.95;;;30.00;1.00;;;;;;10395479;28;20201;-80
2022/08/15 14:38:58;;;;;;;11.95;8.02;;;29.80;1.00;;;;;;10400672;28;20272;-80
2022/08/15 14:44:20;;;;;;;8.93;8.00;;;29.50;1.00;;;;;;10400834;28;20213;-78
2022/08/15 14:49:43;;;;;;;9.70;7.05;;;29.40;1.00;;;;;;10386020;28;20203;-79
2022/08/15 14:55:06;;;;;;;9.23;7.90;;;29.30;1.00;;;;;;10357056;28;20252;-79
2022/08/15 15:00:31;;;;;;;8.48;7.65;;;28.90;1.00;;;;;;10359091;28;20265;-77
2022/08/15 15:05:52;;;;;;;10.75;7.70;;;28.80;1.00;;;;;;10333864;28;20273;-79
2022/08/15 15:11:15;;;;;;;9.05;7.35;;;28.70;38.20;;;;;;10333528;28;20205;-78
2022/08/15 15:16:36;;;;;;;9.35;6.88;;;28.60;99.90;;;;;;10317924;28;20209;-77
2022/08/15 15:21:58;;;;;;;8.10;6.78;;;28.50;99.90;;;;;;10318720;28;20227;-79
2022/08/15 15:27:20;;;;;;;8.63;6.80;;;28.50;99.90;;;;;;10333101;28;20199;-80
2022/08/15 15:32:42;;;;;;;9.35;6.47;;;28.50;1.00;;;;;;10381054;28;20197;-79
2022/08/15 15:38:04;;;;;;;8.07;6.53;;;28.40;1.00;;;;;;10383785;28;20200;-80
2022/08/15 15:43:25;;;;;;;21.10;9.52;;;28.50;1.00;;;;;;10398151;28;20235;-76
2022/08/15 15:48:50;;;;;;;12.73;9.25;;;28.20;1.00;;;;;;10398143;28;20217;-80
2022/08/15 15:54:12;;;;;;;13.10;8.48;;;27.50;1.00;;;;;;10347627;28;20260;-77
2022/08/15 15:59:34;;;;;;;9.68;7.68;;;27.10;1.00;;;;;;10357603;28;20264;-80
2022/08/15 16:04:55;;;;;;;9.25;7.22;;;26.70;1.00;;;;;;10334301;28;20523;-77
2022/08/15 16:10:26;;;;;;;9.43;8.07;;;26.40;1.00;;;;;;10331362;28;20205;-77
2022/08/15 16:15:55;;;;;;;12.18;8.30;;;26.50;1.00;;;;;;10331346;28;20277;-78
2022/08/15 16:21:39;;;;;;;10.48;9.20;;;26.40;1.00;;;;;;10315049;28;20252;-80
2022/08/15 16:27:18;;;;;;;12.75;9.40;;;26.40;1.00;;;;;;10315121;28;20198;-77
2022/08/15 16:32:57;;;;;;;11.27;9.88;;;26.30;1.00;;;;;;10355048;28;20206;-76
2022/08/15 16:38:49;;;;;;;12.00;9.80;;;26.20;1.00;;;;;;10396385;28;20268;-75
2022/08/15 16:44:27;;;;;;;14.40;11.15;;;26.10;1.00;;;;;;10396340;28;20523;-76
2022/08/15 16:49:51;;;;;;;15.52;11.25;;;25.80;50.50;;;;;;10381213;28;20212;-75
2022/08/15 16:55:12;;;;;;;10.10;9.10;;;25.30;1.00;;;;;;10337475;28;20507;-78
2022/08/15 17:00:50;;;;;;;9.55;8.55;;;25.30;1.00;;;;;;10354154;28;20440;-78
2022/08/15 17:06:42;;;;;;;11.27;8.45;;;25.10;1.00;;;;;;10323272;28;20198;-77
2022/08/15 17:12:26;;;;;;;10.75;7.93;;;24.60;1.00;;;;;;10313937;28;20198;-77
2022/08/15 17:17:57;;;;;;;9.15;7.80;;;24.60;1.00;;;;;;10314989;28;20540;-77
2022/08/15 17:23:30;;;;;;;11.00;8.80;;;24.50;1.00;;;;;;10313846;28;20229;-77
2022/08/15 17:29:21;;;;;;;8.98;8.07;;;24.40;1.00;;;;;;10332012;28;20245;-77
2022/08/15 17:34:49;;;;;;;13.98;8.35;;;24.30;1.00;;;;;;10354615;28;20198;-77
2022/08/15 17:40:26;;;;;;;11.00;8.13;;;24.20;38.10;;;;;;10339994;28;20190;-77
2022/08/15 17:45:51;;;;;;;8.63;7.72;;;24.10;30.00;;;;;;10354598;28;20194;-77
2022/08/15 17:51:17;;;;;;;8.93;8.02;;;24.00;46.70;;;;;;10354525;28;20194;-77
2022/08/15 17:56:53;;;;;;;13.98;9.02;;;24.10;99.90;;;;;;10362189;28;20277;-77
2022/08/15 18:02:18;;;;;;;11.38;9.00;;;23.90;98.10;;;;;;10361472;28;20222;-80
2022/08/15 18:07:41;;;;;;;10.73;9.57;;;23.80;99.90;;;;;;10336456;28;20245;-77
2022/08/15 18:13:03;;;;;;;11.85;9.25;;;23.80;99.90;;;;;;10320893;28;20218;-79
2022/08/15 18:18:24;;;;;;;11.98;9.68;;;23.70;99.90;;;;;;10320449;28;20200;-80
2022/08/15 18:23:48;;;;;;;10.25;8.57;;;23.60;99.90;;;;;;10320685;28;20281;-77
2022/08/15 18:29:12;;;;;;;14.18;8.95;;;23.50;99.90;;;;;;10326397;28;20264;-77
2022/08/15 18:34:45;;;;;;;12.63;8.60;;;23.50;99.90;;;;;;10386542;28;20228;-78
2022/08/15 18:46:11;;;;;;;10.93;8.32;;;23.40;99.90;;;;;;10400595;28;20197;-78
2022/08/15 18:51:50;;;;;;;10.57;7.68;;;23.20;99.90;;;;;;10395392;28;20359;-81
2022/08/15 18:57:12;;;;;;;8.02;7.22;;;23.20;99.90;;;;;;10341376;28;20551;-76
2022/08/15 19:03:04;;;;;;;8.93;7.30;;;23.10;99.90;;;;;;10356204;28;20226;-79
2022/08/15 19:08:27;;;;;;;8.40;7.47;;;23.10;99.90;;;;;;10319148;28;20531;-78
2022/08/15 19:13:55;;;;;;;7.68;6.97;;;22.90;99.90;;;;;;10333736;28;20230;-78
2022/08/15 19:19:24;;;;;;;7.70;6.90;;;22.90;99.90;;;;;;10333711;28;20206;-78
2022/08/15 19:24:47;;;;;;;8.45;7.38;;;22.90;99.90;;;;;;10333359;28;20234;-76
2022/08/15 19:30:41;;;;;;;8.68;7.35;;;22.80;99.90;;;;;;10339957;28;20233;-78
2022/08/15 19:36:30;;;;;;;9.55;6.75;;;22.80;99.90;;;;;;10381557;28;20209;-78
2022/08/15 19:42:12;;;;;;;13.85;9.65;;;22.70;99.90;;;;;;10380872;28;20419;-77
2022/08/15 19:47:36;;;;;;;12.15;8.95;;;22.60;99.90;;;;;;10398244;28;20197;-76
2022/08/15 19:53:10;;;;;;;15.85;9.25;;;22.50;99.90;;;;;;10357854;28;20202;-77
2022/08/15 19:58:40;;;;;;;13.80;8.82;;;22.40;99.90;;;;;;10342563;28;20193;-77
2022/08/15 20:04:31;;;;;;;15.77;9.55;;;22.40;99.90;;;;;;10327883;28;20460;-77
2022/08/15 20:10:05;;;;;;;9.75;7.88;;;22.30;99.90;;;;;;10316794;28;20201;-76
2022/08/15 20:15:28;;;;;;;8.50;7.55;;;22.20;99.90;;;;;;10316289;28;20257;-79
2022/08/15 20:21:01;;;;;;;8.27;7.30;;;22.30;99.90;;;;;;10316619;28;20228;-77
2022/08/15 20:26:46;;;;;;;9.55;7.80;;;22.30;99.90;;;;;;10316186;28;20505;-77
2022/08/15 20:32:21;;;;;;;13.02;8.27;;;22.20;99.90;;;;;;10367043;28;20586;-77
2022/08/15 20:37:54;;;;;;;12.38;8.07;;;22.20;98.50;;;;;;10379214;28;20511;-76
2022/08/15 20:43:19;;;;;;;10.80;8.32;;;22.20;99.90;;;;;;10381650;28;20241;-77
2022/08/15 20:48:46;;;;;;;9.68;7.65;;;22.20;99.90;;;;;;10364801;28;20212;-76
2022/08/15 20:54:13;;;;;;;10.00;8.93;;;22.20;99.90;;;;;;10361151;28;20206;-77
2022/08/15 20:59:59;;;;;;;13.50;8.45;;;22.10;97.50;;;;;;10340797;28;20256;-77
2022/08/15 21:05:26;;;;;;;12.38;8.18;;;22.10;99.90;;;;;;10330346;28;20238;-76
2022/08/15 21:10:55;;;;;;;10.32;9.13;;;22.00;99.90;;;;;;10314831;28;20190;-76
2022/08/15 21:16:53;;;;;;;12.23;8.40;;;22.00;99.90;;;;;;10314195;28;20233;-77
2022/08/15 21:22:45;;;;;;;9.32;8.40;;;21.90;99.90;;;;;;10314789;28;20223;-76
2022/08/15 21:28:09;;;;;;;9.82;8.25;;;21.90;99.90;;;;;;10317728;28;20415;-77
2022/08/15 21:33:40;;;;;;;10.90;8.07;;;22.00;99.90;;;;;;10371676;28;20195;-78
2022/08/15 21:39:04;;;;;;;9.75;8.35;;;22.00;99.90;;;;;;10403310;28;20536;-77
2022/08/15 21:44:38;;;;;;;9.00;7.70;;;22.00;99.90;;;;;;10388803;28;20228;-77
2022/08/15 21:50:07;;;;;;;12.93;7.93;;;21.90;99.90;;;;;;10403172;28;20204;-76
2022/08/15 21:55:29;;;;;;;8.82;6.97;;;21.90;99.90;;;;;;10356372;28;20203;-78
2022/08/15 22:01:07;;;;;;;9.68;6.93;;;21.90;91.50;;;;;;10360769;28;20205;-77
2022/08/15 22:06:30;;;;;;;10.65;7.40;;;21.90;89.20;;;;;;10327565;28;20206;-77
2022/08/15 22:11:53;;;;;;;12.88;8.02;;;21.90;91.00;;;;;;10320129;28;20194;-77
2022/08/15 22:17:16;;;;;;;12.88;6.82;;;21.90;83.40;;;;;;10321030;28;20194;-78
2022/08/15 22:22:40;;;;;;;10.70;7.55;;;21.90;56.70;;;;;;10292571;28;20234;-77
2022/08/15 22:28:02;;;;;;;11.75;7.60;;;21.90;60.70;;;;;;10306028;28;20246;-78
2022/08/15 22:33:24;;;;;;;8.50;7.53;;;21.80;54.50;;;;;;10395370;28;20531;-77
2022/08/15 22:38:46;;;;;;;10.85;7.35;;;21.80;78.90;;;;;;10383208;28;20192;-76
2022/08/15 22:44:07;;;;;;;10.05;7.38;;;21.80;87.00;;;;;;10400990;28;20225;-76
2022/08/15 22:49:31;;;;;;;16.10;8.60;;;21.80;90.10;;;;;;10400821;28;20369;-76
2022/08/15 22:54:56;;;;;;;10.25;8.30;;;21.80;81.20;;;;;;10355793;28;20281;-76
2022/08/15 23:00:18;;;;;;;12.63;8.10;;;21.70;69.40;;;;;;10359670;28;20485;-77
2022/08/15 23:05:45;;;;;;;9.13;7.72;;;21.80;91.60;;;;;;10331962;28;20226;-78
2022/08/15 23:11:18;;;;;;;13.07;7.50;;;21.70;79.50;;;;;;10317958;28;20303;-77
2022/08/15 23:16:49;;;;;;;12.55;7.97;;;21.70;59.90;;;;;;10319027;28;20252;-78
2022/08/15 23:22:13;;;;;;;11.38;7.57;;;21.60;77.40;;;;;;10318477;28;20226;-80
2022/08/15 23:27:36;;;;;;;10.38;7.53;;;21.60;83.80;;;;;;10303375;28;20205;-77
2022/08/15 23:33:03;;;;;;;9.18;7.47;;;21.60;72.20;;;;;;10383826;28;20238;-79
2022/08/15 23:38:24;;;;;;;9.93;7.53;;;21.60;83.80;;;;;;10382032;28;20534;-78
2022/08/15 23:43:45;;;;;;;10.55;7.25;;;21.60;80.60;;;;;;10396878;28;20247;-76
2022/08/15 23:49:07;;;;;;;12.23;7.75;;;21.60;73.40;;;;;;10395922;28;20522;-77
2022/08/15 23:54:30;;;;;;;9.63;7.47;;;21.60;82.20;;;;;;10357960;28;20217;-77
2022/08/15 23:59:52;;;;;;;14.30;7.90;;;21.50;90.70;;;;;;10354485;28;20197;-77
